Atomic City, Idaho
Current Conditions -  °F | °C
As of 8:53 PM on Sunday 21 Dec 2014 (Local Time) from KIDA Reporting Station
Clear Clear  
Wind Chill: 28°   Ceiling: Unl
Heat Index: 35°   Visibility: 10mi
Dew Point: 29°   Wind: 9mph
Humidity: 78%   Direction: 190°S
Pressure: 29.91"   Gusts: NA
Location:  43.44°N, 112.81°W
Report Text: KIDA 220353Z AUTO 19008KT 10SM CLR 02/M02 A2991 RMK AO2 SLP138 T00171017
Loading
Personal Weather Stations






























Interactive Weather Map New forecast layout! Learn more

10-Day Weather Forecast

Advertisements
Track Severe Weather on mobile